createdAt,value
2018-03-03T00:00:48.935Z,77.50
2018-03-03T00:03:16.003Z,77.50
2018-03-03T00:05:43.067Z,77.50
2018-03-03T00:08:11.047Z,77.40
2018-03-03T00:10:38.106Z,77.40
2018-03-03T00:13:05.167Z,77.10
2018-03-03T00:15:32.147Z,77.30
2018-03-03T00:18:00.722Z,77.90
2018-03-03T00:20:27.774Z,77.80
2018-03-03T00:22:54.834Z,77.90
2018-03-03T00:25:21.819Z,78.10
2018-03-03T00:27:48.791Z,78.10
2018-03-03T00:30:15.814Z,78.00
2018-03-03T00:32:42.871Z,77.80
2018-03-03T00:35:09.935Z,78.00
2018-03-03T00:37:36.907Z,78.20
2018-03-03T00:40:03.898Z,78.20
2018-03-03T00:42:31.636Z,78.20
2018-03-03T00:44:58.687Z,78.10
2018-03-03T00:47:25.658Z,78.10
2018-03-03T00:49:52.643Z,78.20
2018-03-03T00:52:19.659Z,78.20
2018-03-03T00:54:46.727Z,78.80
2018-03-03T00:57:13.700Z,78.40
2018-03-03T00:59:40.702Z,78.30
2018-03-03T01:02:08.443Z,78.20
2018-03-03T01:04:36.194Z,78.30
2018-03-03T01:07:03.162Z,78.20
2018-03-03T01:09:30.134Z,78.50
2018-03-03T01:11:57.114Z,78.50
2018-03-03T01:14:24.955Z,78.50
2018-03-03T01:16:51.998Z,78.40
2018-03-03T01:19:18.976Z,78.30
2018-03-03T01:21:46.024Z,78.30
2018-03-03T01:24:13.039Z,78.40
2018-03-03T01:26:40.885Z,78.50
2018-03-03T01:29:07.851Z,78.50
2018-03-03T01:31:34.887Z,78.70
2018-03-03T01:34:01.859Z,78.70
2018-03-03T01:36:28.899Z,78.70
2018-03-03T01:38:55.879Z,78.60
2018-03-03T01:41:22.864Z,78.60
2018-03-03T01:43:50.608Z,78.70
2018-03-03T01:46:17.595Z,78.60
2018-03-03T01:48:44.607Z,78.60
2018-03-03T01:51:17.499Z,79.30
2018-03-03T01:53:44.567Z,78.50
2018-03-03T01:56:11.623Z,78.50
2018-03-03T01:58:39.611Z,78.60
2018-03-03T02:01:06.672Z,78.50
2018-03-03T02:03:33.643Z,78.70
2018-03-03T02:06:00.624Z,79.50
2018-03-03T02:08:28.668Z,78.90
2018-03-03T02:10:55.727Z,78.90
2018-03-03T02:13:22.707Z,79.00
2018-03-03T02:15:49.679Z,79.00
2018-03-03T02:18:17.623Z,79.00
2018-03-03T02:20:44.686Z,79.00
2018-03-03T02:23:11.751Z,79.10
2018-03-03T02:25:38.730Z,79.30
2018-03-03T02:28:05.705Z,79.40
2018-03-03T02:30:32.723Z,79.30
2018-03-03T02:32:59.789Z,79.40
2018-03-03T02:35:26.848Z,79.50
2018-03-03T02:37:53.899Z,79.50
2018-03-03T02:40:20.874Z,79.50
2018-03-03T02:42:47.864Z,79.70
2018-03-03T02:45:14.879Z,79.70
2018-03-03T02:47:41.864Z,80.30
2018-03-03T02:50:08.844Z,79.80
2018-03-03T02:52:35.855Z,79.70
2018-03-03T02:55:02.823Z,79.70
2018-03-03T02:57:29.871Z,79.90
2018-03-03T02:59:56.844Z,79.80
2018-03-03T03:02:23.888Z,79.80
2018-03-03T03:04:50.956Z,79.50
2018-03-03T03:07:17.937Z,79.60
2018-03-03T03:09:44.967Z,79.70
2018-03-03T03:12:12.036Z,79.70
2018-03-03T03:14:39.095Z,79.60
2018-03-03T03:17:06.058Z,79.70
2018-03-03T03:19:33.099Z,79.70
2018-03-03T03:22:00.163Z,80.30
2018-03-03T03:24:27.227Z,79.50
2018-03-03T03:26:54.200Z,79.50
2018-03-03T03:29:21.184Z,79.50
2018-03-03T03:31:49.663Z,79.40
2018-03-03T03:34:16.643Z,79.40
2018-03-03T03:36:44.482Z,79.40
2018-03-03T03:39:11.536Z,79.40
2018-03-03T03:41:38.595Z,79.50
2018-03-03T03:44:05.578Z,79.40
2018-03-03T03:46:32.693Z,79.60
2018-03-03T03:49:00.415Z,79.60
2018-03-03T03:51:27.450Z,79.60
2018-03-03T03:53:54.427Z,79.60
2018-03-03T03:56:21.474Z,79.60
2018-03-03T03:58:48.439Z,79.60
2018-03-03T04:01:15.487Z,79.70
2018-03-03T04:03:42.464Z,79.70
2018-03-03T04:06:09.444Z,79.80
2018-03-03T04:08:37.311Z,79.90
2018-03-03T04:11:04.445Z,80.00
2018-03-03T04:13:31.414Z,79.90
2018-03-03T04:15:58.464Z,80.00
2018-03-03T04:18:26.376Z,80.10
2018-03-03T04:20:53.403Z,80.10
2018-03-03T04:23:20.459Z,80.00
2018-03-03T04:25:47.524Z,80.10
2018-03-03T04:28:15.394Z,79.80
2018-03-03T04:30:42.383Z,80.00
2018-03-03T04:33:09.356Z,80.00
2018-03-03T04:35:36.342Z,79.90
2018-03-03T04:38:03.318Z,79.90
2018-03-03T04:40:30.301Z,79.90
2018-03-03T04:42:57.355Z,80.00
2018-03-03T04:45:24.411Z,80.10
2018-03-03T04:47:51.395Z,80.00
2018-03-03T04:50:18.384Z,79.90
2018-03-03T04:52:46.123Z,79.90
2018-03-03T04:55:13.095Z,79.90
2018-03-03T04:57:40.080Z,79.70
2018-03-03T05:00:17.718Z,79.70
2018-03-03T05:02:48.375Z,79.70
2018-03-03T05:05:19.011Z,79.70
2018-03-03T05:07:54.759Z,79.60
2018-03-03T05:10:34.636Z,79.60
2018-03-03T05:13:07.544Z,79.40
2018-03-03T05:15:51.231Z,79.30
2018-03-03T05:18:38.039Z,79.30
2018-03-03T05:21:11.496Z,78.60
2018-03-03T05:23:44.903Z,79.20
2018-03-03T05:26:18.535Z,79.20
2018-03-03T05:28:51.338Z,79.20
2018-03-03T05:31:24.114Z,79.30
2018-03-03T05:33:56.820Z,79.40
2018-03-03T05:36:29.531Z,79.50
2018-03-03T05:39:15.350Z,79.30
2018-03-03T05:41:48.079Z,79.20
2018-03-03T05:44:21.517Z,79.40
2018-03-03T05:46:49.324Z,79.40
2018-03-03T05:49:35.155Z,79.30
2018-03-03T05:52:17.927Z,79.30
2018-03-03T05:54:50.683Z,79.40
2018-03-03T05:57:21.408Z,79.40
2018-03-03T05:59:48.379Z,80.30
2018-03-03T06:02:15.363Z,79.40
2018-03-03T06:04:58.876Z,79.30
2018-03-03T06:07:31.574Z,79.20
2018-03-03T06:09:59.359Z,79.10
2018-03-03T06:12:26.387Z,79.20
2018-03-03T06:14:53.362Z,79.20
2018-03-03T06:17:20.403Z,79.20
2018-03-03T06:19:47.469Z,79.10
2018-03-03T06:22:14.437Z,79.00
2018-03-03T06:24:41.411Z,78.80
2018-03-03T06:27:08.383Z,78.80
2018-03-03T06:29:35.495Z,78.70
2018-03-03T06:32:02.471Z,78.80
2018-03-03T06:34:29.511Z,78.70
2018-03-03T06:36:56.486Z,78.80
2018-03-03T06:39:23.535Z,78.70
2018-03-03T06:41:50.529Z,78.60
2018-03-03T06:44:17.553Z,78.70
2018-03-03T06:46:44.543Z,78.60
2018-03-03T06:49:11.519Z,78.80
2018-03-03T06:51:39.267Z,78.10
2018-03-03T06:54:12.034Z,78.10
2018-03-03T06:56:39.099Z,78.00
2018-03-03T06:59:06.079Z,77.90
2018-03-03T07:01:33.055Z,77.80
2018-03-03T07:04:00.055Z,77.90
2018-03-03T07:06:27.031Z,77.90
2018-03-03T07:08:54.020Z,77.80
2018-03-03T07:11:21.054Z,77.80
2018-03-03T07:13:48.048Z,77.50
2018-03-03T07:16:15.015Z,77.60
2018-03-03T07:18:42.759Z,77.40
2018-03-03T07:21:09.743Z,77.40
2018-03-03T07:23:36.715Z,77.00
2018-03-03T07:26:04.584Z,76.90
2018-03-03T07:28:32.546Z,76.90
2018-03-03T07:30:59.514Z,76.80
2018-03-03T07:33:26.488Z,76.50
2018-03-03T07:35:54.311Z,76.70
2018-03-03T07:38:21.375Z,76.60
2018-03-03T07:40:48.440Z,76.00
2018-03-03T07:43:15.507Z,75.80
2018-03-03T07:45:42.482Z,75.80
2018-03-03T07:48:09.451Z,76.00
2018-03-03T07:50:36.435Z,75.80
2018-03-03T07:53:04.254Z,75.70
2018-03-03T07:55:31.226Z,75.70
2018-03-03T07:57:58.267Z,75.50
2018-03-03T08:00:25.247Z,75.50
2018-03-03T08:02:52.228Z,75.40
2018-03-03T08:05:20.711Z,75.40
2018-03-03T08:07:47.683Z,75.40
2018-03-03T08:10:15.422Z,75.90
2018-03-03T08:12:42.403Z,75.50
2018-03-03T08:15:09.386Z,75.30
2018-03-03T08:17:37.123Z,75.30
2018-03-03T08:20:04.163Z,75.20
2018-03-03T08:22:31.223Z,75.20
2018-03-03T08:24:58.196Z,75.30
2018-03-03T08:27:25.168Z,74.70
2018-03-03T08:29:52.138Z,73.90
2018-03-03T08:32:19.164Z,72.70
2018-03-03T08:34:46.243Z,72.60
2018-03-03T08:37:13.203Z,72.30
2018-03-03T08:39:40.238Z,72.10
2018-03-03T08:42:08.020Z,71.80
2018-03-03T08:44:34.996Z,71.40
2018-03-03T08:47:01.974Z,71.20
2018-03-03T08:49:28.983Z,71.60
2018-03-03T08:51:56.043Z,72.10
2018-03-03T08:54:23.024Z,72.00
2018-03-03T08:56:50.075Z,71.60
2018-03-03T08:59:17.046Z,71.60
2018-03-03T09:01:44.019Z,71.30
2018-03-03T09:04:10.994Z,70.90
2018-03-03T09:06:37.960Z,71.40
2018-03-03T09:09:05.698Z,71.10
2018-03-03T09:11:32.731Z,71.10
2018-03-03T09:13:59.795Z,71.30
2018-03-03T09:16:26.855Z,70.90
2018-03-03T09:18:53.835Z,71.20
2018-03-03T09:21:20.815Z,70.80
2018-03-03T09:23:47.784Z,71.20
2018-03-03T09:26:15.523Z,70.80
2018-03-03T09:28:42.511Z,70.70
2018-03-03T09:31:09.484Z,70.60
2018-03-03T09:33:37.228Z,70.40
2018-03-03T09:36:04.263Z,70.40
2018-03-03T09:38:31.235Z,70.40
2018-03-03T09:40:58.214Z,70.50
2018-03-03T09:43:25.189Z,70.30
2018-03-03T09:45:53.011Z,70.70
2018-03-03T09:48:19.987Z,70.70
2018-03-03T09:50:46.963Z,70.40
2018-03-03T09:53:13.996Z,70.30
2018-03-03T09:55:40.970Z,70.60
2018-03-03T09:58:08.355Z,70.70
2018-03-03T10:00:35.302Z,70.60
2018-03-03T10:03:02.332Z,69.90
2018-03-03T10:05:29.396Z,70.20
2018-03-03T10:07:56.365Z,70.50
2018-03-03T10:10:23.407Z,69.90
2018-03-03T10:12:50.389Z,70.20
2018-03-03T10:15:17.424Z,70.60
2018-03-03T10:17:44.399Z,70.00
2018-03-03T10:20:11.447Z,70.30
2018-03-03T10:22:38.419Z,70.00
2018-03-03T10:25:05.396Z,69.90
2018-03-03T10:27:32.367Z,69.50
2018-03-03T10:29:59.339Z,69.50
2018-03-03T10:32:27.079Z,69.50
2018-03-03T10:34:54.050Z,69.50
2018-03-03T10:37:21.023Z,69.60
2018-03-03T10:39:48.901Z,69.00
2018-03-03T10:42:15.908Z,69.00
2018-03-03T10:44:42.883Z,69.10
2018-03-03T10:47:09.855Z,69.20
2018-03-03T10:49:38.440Z,68.50
2018-03-03T10:52:05.405Z,68.50
2018-03-03T10:54:32.370Z,68.30
2018-03-03T10:56:59.343Z,67.90
2018-03-03T10:59:27.078Z,67.80
2018-03-03T11:01:54.052Z,68.00
2018-03-03T11:04:21.020Z,67.90
2018-03-03T11:06:48.046Z,67.80
2018-03-03T11:09:15.015Z,67.80
2018-03-03T11:11:41.991Z,67.40
2018-03-03T11:14:08.955Z,66.80
2018-03-03T11:16:35.935Z,67.00
2018-03-03T11:19:03.674Z,66.80
2018-03-03T11:21:30.712Z,66.80
2018-03-03T11:23:57.684Z,66.90
2018-03-03T11:26:24.736Z,67.10
2018-03-03T11:28:51.707Z,67.20
2018-03-03T11:31:18.751Z,66.70
2018-03-03T11:33:45.728Z,66.50
2018-03-03T11:36:12.707Z,65.00
2018-03-03T11:38:39.683Z,63.90
2018-03-03T11:41:07.444Z,65.30
2018-03-03T11:43:34.427Z,65.30
2018-03-03T11:46:02.163Z,64.40
2018-03-03T11:48:29.142Z,64.40
2018-03-03T11:50:56.119Z,63.90
2018-03-03T11:53:23.916Z,62.70
2018-03-03T11:55:51.633Z,62.90
2018-03-03T11:58:18.630Z,63.60
2018-03-03T12:00:45.575Z,63.00
2018-03-03T12:03:13.319Z,62.70
2018-03-03T12:05:40.313Z,62.70
2018-03-03T12:08:08.052Z,64.20
2018-03-03T12:10:35.103Z,63.50
2018-03-03T12:13:02.091Z,63.40
2018-03-03T12:15:29.070Z,63.70
2018-03-03T12:17:56.812Z,62.80
2018-03-03T12:20:23.794Z,62.80
2018-03-03T12:22:50.807Z,62.80
2018-03-03T12:25:17.780Z,63.40
2018-03-03T12:27:44.772Z,63.70
2018-03-03T12:30:12.580Z,62.60
2018-03-03T12:32:40.367Z,63.50
2018-03-03T12:35:07.352Z,63.50
2018-03-03T12:37:34.319Z,64.40
2018-03-03T12:40:01.317Z,65.00
2018-03-03T12:42:28.267Z,64.90
2018-03-03T12:44:56.012Z,64.20
2018-03-03T12:47:23.039Z,64.20
2018-03-03T12:49:50.102Z,64.20
2018-03-03T12:52:17.076Z,64.00
2018-03-03T12:54:44.127Z,63.70
2018-03-03T12:57:11.092Z,63.30
2018-03-03T12:59:38.144Z,63.50
2018-03-03T13:02:05.198Z,63.30
2018-03-03T13:04:32.870Z,63.30
2018-03-03T13:06:59.938Z,63.60
2018-03-03T13:09:26.919Z,62.80
2018-03-03T13:11:53.895Z,63.50
2018-03-03T13:14:20.919Z,63.50
2018-03-03T13:16:47.884Z,63.40
2018-03-03T13:19:14.879Z,63.00
2018-03-03T13:21:42.619Z,63.30
2018-03-03T13:24:09.683Z,63.80
2018-03-03T13:26:36.736Z,62.10
2018-03-03T13:29:03.708Z,61.80
2018-03-03T13:31:30.742Z,60.20
2018-03-03T13:33:57.711Z,59.90
2018-03-03T13:36:24.687Z,59.90
2018-03-03T13:38:51.660Z,59.10
2018-03-03T13:41:19.411Z,59.20
2018-03-03T13:43:46.383Z,59.10
2018-03-03T13:46:13.363Z,59.50
2018-03-03T13:48:41.099Z,58.10
2018-03-03T13:51:08.080Z,57.90
2018-03-03T13:53:35.051Z,55.60
2018-03-03T13:56:02.797Z,53.70
2018-03-03T13:58:29.840Z,53.70
2018-03-03T14:00:57.540Z,54.60
2018-03-03T14:03:24.519Z,54.50
2018-03-03T14:05:51.504Z,54.60
2018-03-03T14:08:18.475Z,53.80
2018-03-03T14:10:45.443Z,52.50
2018-03-03T14:13:12.423Z,50.60
2018-03-03T14:15:39.449Z,50.20
2018-03-03T14:18:07.253Z,51.00
2018-03-03T14:20:34.303Z,51.00
2018-03-03T14:23:01.366Z,51.30
2018-03-03T14:25:28.340Z,51.70
2018-03-03T14:27:55.334Z,51.50
2018-03-03T14:30:23.154Z,50.10
2018-03-03T14:32:50.139Z,50.00
2018-03-03T14:35:17.107Z,50.10
2018-03-03T14:37:44.091Z,49.50
2018-03-03T14:40:11.831Z,49.30
2018-03-03T14:42:38.867Z,49.30
2018-03-03T14:45:05.839Z,49.30
2018-03-03T14:47:32.833Z,48.50
2018-03-03T14:49:59.796Z,48.50
2018-03-03T14:52:27.535Z,49.90
2018-03-03T14:54:54.503Z,49.80
2018-03-03T14:57:22.320Z,50.50
2018-03-03T14:59:49.291Z,50.50
2018-03-03T15:02:16.363Z,50.90
2018-03-03T15:04:43.332Z,51.40
2018-03-03T15:07:10.300Z,51.10
2018-03-03T15:09:37.375Z,51.00
2018-03-03T15:12:04.335Z,51.60
2018-03-03T15:14:31.414Z,52.50
2018-03-03T15:16:58.387Z,53.20
2018-03-03T15:19:25.502Z,53.40
2018-03-03T15:21:52.535Z,54.00
2018-03-03T15:24:19.514Z,54.40
2018-03-03T15:26:46.488Z,55.00
2018-03-03T15:29:13.471Z,55.00
2018-03-03T15:31:40.456Z,55.70
2018-03-03T15:34:07.419Z,56.30
2018-03-03T15:36:34.383Z,56.70
2018-03-03T15:39:01.359Z,57.00
2018-03-03T15:41:28.323Z,57.00
2018-03-03T15:43:55.307Z,57.40
2018-03-03T15:46:22.276Z,57.70
2018-03-03T15:48:50.187Z,58.20
2018-03-03T15:51:17.203Z,58.50
2018-03-03T15:53:44.179Z,59.10
2018-03-03T15:56:11.247Z,59.40
2018-03-03T15:58:39.175Z,59.30
2018-03-03T16:01:06.147Z,59.40
2018-03-03T16:03:33.119Z,59.70
2018-03-03T16:06:00.147Z,59.90
2018-03-03T16:08:27.228Z,60.00
2018-03-03T16:10:54.204Z,60.50
2018-03-03T16:13:21.171Z,60.90
2018-03-03T16:15:48.145Z,61.10
2018-03-03T16:18:15.207Z,61.40
2018-03-03T16:20:42.187Z,61.80
2018-03-03T16:23:09.159Z,62.10
2018-03-03T16:25:36.274Z,62.60
2018-03-03T16:28:03.195Z,62.60
2018-03-03T16:30:30.271Z,63.10
2018-03-03T16:32:57.336Z,63.40
2018-03-03T16:35:24.418Z,63.40
2018-03-03T16:37:51.379Z,63.70
2018-03-03T16:40:18.459Z,63.60
2018-03-03T16:42:45.419Z,64.10
2018-03-03T16:45:12.394Z,64.20
2018-03-03T16:47:39.359Z,64.50
2018-03-03T16:50:06.439Z,64.60
2018-03-03T16:52:33.507Z,64.90
2018-03-03T16:55:00.479Z,65.30
2018-03-03T16:57:27.562Z,65.50
2018-03-03T16:59:54.535Z,65.60
2018-03-03T17:02:21.599Z,65.60
2018-03-03T17:04:48.563Z,65.70
2018-03-03T17:07:15.535Z,65.90
2018-03-03T17:09:42.607Z,66.10
2018-03-03T17:12:09.578Z,66.30
2018-03-03T17:14:36.580Z,66.60
2018-03-03T17:17:03.532Z,66.60
2018-03-03T17:19:30.525Z,66.70
2018-03-03T17:21:57.499Z,66.80
2018-03-03T17:24:24.504Z,67.10
2018-03-03T17:26:52.273Z,66.90
2018-03-03T17:29:19.298Z,67.30
2018-03-03T17:31:46.321Z,67.30
2018-03-03T17:34:13.340Z,67.40
2018-03-03T17:36:41.141Z,67.90
2018-03-03T17:39:08.146Z,67.80
2018-03-03T17:41:35.174Z,68.00
2018-03-03T17:44:02.157Z,68.20
2018-03-03T17:46:29.168Z,68.20
2018-03-03T17:48:56.157Z,68.40
2018-03-03T17:51:23.922Z,68.80
2018-03-03T17:53:50.944Z,68.70
2018-03-03T17:56:18.722Z,68.90
2018-03-03T17:58:46.516Z,69.00
2018-03-03T18:01:14.308Z,69.00
2018-03-03T18:03:41.311Z,69.00
2018-03-03T18:06:08.404Z,69.10
2018-03-03T18:08:35.572Z,69.20
2018-03-03T18:11:02.569Z,69.30
2018-03-03T18:13:32.141Z,69.40
2018-03-03T18:15:59.184Z,69.30
2018-03-03T18:18:26.141Z,69.40
2018-03-03T18:20:53.141Z,69.50
2018-03-03T18:23:20.909Z,69.60
2018-03-03T18:25:47.912Z,69.50
2018-03-03T18:28:14.924Z,69.60
2018-03-03T18:30:41.938Z,69.70
2018-03-03T18:33:08.940Z,69.60
2018-03-03T18:35:35.926Z,69.60
2018-03-03T18:38:02.940Z,69.60
2018-03-03T18:40:29.973Z,69.60
2018-03-03T18:42:57.083Z,69.50
2018-03-03T18:45:24.051Z,69.30
2018-03-03T18:47:51.076Z,69.30
2018-03-03T18:50:18.142Z,69.20
2018-03-03T18:52:45.116Z,69.20
2018-03-03T18:55:12.190Z,69.20
2018-03-03T18:57:39.167Z,69.90
2018-03-03T19:00:06.158Z,69.20
2018-03-03T19:02:33.182Z,69.00
2018-03-03T19:05:00.976Z,68.90
2018-03-03T19:07:28.734Z,68.90
2018-03-03T19:09:55.755Z,68.90
2018-03-03T19:12:22.765Z,69.00
2018-03-03T19:14:49.775Z,69.10
2018-03-03T19:17:16.759Z,69.00
2018-03-03T19:19:44.516Z,69.10
2018-03-03T19:22:11.511Z,69.00
2018-03-03T19:24:39.305Z,69.10
2018-03-03T19:27:06.615Z,68.90
2018-03-03T19:29:33.592Z,69.20
2018-03-03T19:32:00.663Z,69.00
2018-03-03T19:34:27.724Z,69.10
2018-03-03T19:36:54.804Z,69.20
2018-03-03T19:39:21.780Z,69.20
2018-03-03T19:41:48.758Z,69.10
2018-03-03T19:44:15.743Z,69.00
2018-03-03T19:46:42.716Z,69.00
2018-03-03T19:49:09.759Z,69.10
2018-03-03T19:51:36.733Z,69.20
2018-03-03T19:54:03.711Z,69.30
2018-03-03T19:56:30.679Z,69.30
2018-03-03T19:58:57.661Z,69.30
2018-03-03T20:01:24.636Z,69.20
2018-03-03T20:03:51.606Z,69.30
2018-03-03T20:06:18.567Z,69.30
2018-03-03T20:08:45.548Z,69.50
2018-03-03T20:11:12.608Z,69.30
2018-03-03T20:13:39.613Z,69.20
2018-03-03T20:16:06.646Z,69.50
2018-03-03T20:18:33.651Z,69.90
2018-03-03T20:21:00.699Z,70.40
2018-03-03T20:23:27.670Z,70.90
2018-03-03T20:25:54.735Z,71.40
2018-03-03T20:28:21.708Z,71.60
2018-03-03T20:30:48.986Z,72.10
2018-03-03T20:33:15.955Z,72.20
2018-03-03T20:35:42.936Z,72.60
2018-03-03T20:38:10.547Z,72.90
2018-03-03T20:40:37.596Z,73.60
2018-03-03T20:43:04.572Z,73.30
2018-03-03T20:45:31.647Z,73.50
2018-03-03T20:47:58.617Z,73.80
2018-03-03T20:50:25.591Z,73.80
2018-03-03T20:52:52.563Z,74.00
2018-03-03T20:55:19.627Z,74.20
2018-03-03T20:57:46.599Z,74.30
2018-03-03T21:00:13.663Z,74.30
2018-03-03T21:02:40.723Z,74.50
2018-03-03T21:05:07.679Z,74.70
2018-03-03T21:07:35.544Z,75.20
2018-03-03T21:10:02.519Z,75.80
2018-03-03T21:12:33.001Z,75.30
2018-03-03T21:15:00.740Z,75.50
2018-03-03T21:17:27.707Z,75.50
2018-03-03T21:19:54.684Z,75.90
2018-03-03T21:22:21.732Z,76.10
2018-03-03T21:24:48.715Z,76.20
2018-03-03T21:27:15.790Z,76.30
2018-03-03T21:29:42.776Z,76.70
2018-03-03T21:32:09.826Z,76.80
2018-03-03T21:34:36.795Z,77.10
2018-03-03T21:37:03.780Z,77.20
2018-03-03T21:39:30.748Z,77.50
2018-03-03T21:41:57.723Z,77.50
2018-03-03T21:44:24.726Z,77.60
2018-03-03T21:46:51.680Z,77.50
2018-03-03T21:49:18.647Z,77.50
2018-03-03T21:51:45.619Z,77.50
2018-03-03T21:54:12.659Z,77.40
2018-03-03T21:56:39.651Z,77.40
2018-03-03T21:59:06.620Z,77.30
2018-03-03T22:01:33.677Z,77.50
2018-03-03T22:04:00.655Z,77.60
2018-03-03T22:06:27.622Z,77.50
2018-03-03T22:08:54.626Z,77.40
2018-03-03T22:11:21.576Z,77.60
2018-03-03T22:13:48.552Z,77.60
2018-03-03T22:16:15.599Z,77.70
2018-03-03T22:18:43.530Z,77.80
2018-03-03T22:21:10.567Z,77.80
2018-03-03T22:23:37.644Z,77.80
2018-03-03T22:26:04.610Z,78.00
2018-03-03T22:28:31.583Z,77.80
2018-03-03T22:30:58.555Z,77.90
2018-03-03T22:33:25.534Z,77.90
2018-03-03T22:35:52.599Z,78.10
2018-03-03T22:38:20.526Z,78.20
2018-03-03T22:40:47.510Z,78.40
2018-03-03T22:43:14.491Z,78.70
2018-03-03T22:45:41.463Z,78.80
2018-03-03T22:48:08.480Z,78.80
2018-03-03T22:50:35.658Z,78.90
2018-03-03T22:53:02.631Z,78.90
2018-03-03T22:55:29.617Z,79.10
2018-03-03T22:57:56.583Z,79.20
2018-03-03T23:00:23.567Z,79.30
2018-03-03T23:02:50.566Z,79.40
2018-03-03T23:05:17.545Z,79.30
2018-03-03T23:07:44.555Z,79.60
2018-03-03T23:10:11.535Z,79.70
2018-03-03T23:12:38.604Z,79.80
2018-03-03T23:15:05.603Z,79.70
2018-03-03T23:17:32.580Z,79.80
2018-03-03T23:19:59.554Z,79.90
2018-03-03T23:22:26.529Z,80.00
2018-03-03T23:24:53.505Z,80.10
2018-03-03T23:27:20.471Z,80.40
2018-03-03T23:29:47.452Z,80.50
2018-03-03T23:32:14.423Z,80.50
2018-03-03T23:34:41.394Z,80.60
2018-03-03T23:37:08.363Z,80.70
2018-03-03T23:39:36.107Z,80.80
2018-03-03T23:42:03.158Z,80.80
2018-03-03T23:44:30.131Z,80.80
2018-03-03T23:46:57.208Z,80.90
2018-03-03T23:49:24.282Z,81.00
2018-03-03T23:51:51.252Z,81.20
2018-03-03T23:54:18.331Z,81.10
2018-03-03T23:56:45.302Z,80.90
2018-03-03T23:59:12.364Z,81.00
